deformed-offering

Current conditions - KSJC (San Jose International)


Coded METAR: 2017/08/23 12:53 KSJC 231253Z 29004KT 4SM BR FEW002 BKN008 OVC011 17/15 A2998 RMK AO2 SLP150 T01720150

Weather Report

Report issued: Wed 23rd Aug at 05:53 PDT

Wind: light breeze from West-Northwest (290 degrees) at 4 knots (5 mph, 7 kph, Force 2)
Visibility: 4 statute miles
Weather: mist
Cloud: a few clouds at 200 feet
Cloud: broken at 800 feet
Cloud: overcast at 1100 feet
Temperature: 63F / 17C
Dewpoint: 59F / 15C
Humidity: 88%
Pressure: 29.98 inches of mercury

Current conditions - KNUQ (Moffett NAS)


Coded METAR: 2017/08/23 12:56 KNUQ 231256Z 04005KT 7SM OVC010 17/15 A2998 RMK AO2 SLP156 T01720150

Weather Report

Report issued: Wed 23rd Aug at 05:56 PDT

Wind: light breeze from the Northeast (040 degrees) at 5 knots (6 mph, 9 kph, Force 2)
Visibility: 7 statute miles
Cloud: overcast at 1000 feet
Temperature: 63F / 17C
Dewpoint: 59F / 15C
Humidity: 88%
Pressure: 29.98 inches of mercury

Current conditions - KRHV (Reid-Hillview Airport - San Jose)


Coded METAR: 2017/08/23 03:47 KRHV 230347Z 31006KT 10SM SKC 21/15 A3001

Weather Report

Report issued: Wed 23rd Aug at 20:47 PDT

Wind: light breeze from the Northwest (310 degrees) at 6 knots (7 mph, 11 kph, Force 2)
Visibility: 10 statute miles
Cloud: Sky clear
Temperature: 70F / 21C
Dewpoint: 59F / 15C
Humidity: 69%
Pressure: 30.01 inches of mercury

Current conditions - KPAO (Palo Alto Airport)


Coded METAR: 2017/08/23 03:47 KPAO 230347Z 33010KT 10SM SKC 18/16 A3000 RMK LAST

Weather Report

Report issued: Wed 23rd Aug at 20:47 PDT

Wind: gentle breeze from North-Northwest (330 degrees) at 10 knots (12 mph, 19 kph, Force 3)
Visibility: 10 statute miles
Cloud: Sky clear
Temperature: 64F / 18C
Dewpoint: 61F / 16C
Humidity: 88%
Pressure: 30.00 inches of mercury

 

deformed-offering